Dobrodošli na spletni strani vremenske postaje Senovo. Vse informacije so informativnega značaja, saj vremenska postaja ni del državne mreže meteoroloških postaj. AKTUALNIH OBVESTIL NI.


Posebna pozornost v zvezi z vremenskimi dogajanji ni potrebna.    Posebna pozornost v zvezi z vremenskimi dogajanji ni potrebna.

Pogled proti Armezu več informacij Pogled proti Armezu


Bohor več informacij Bohor


Radar strel več informacij blitzortung!


Radar padavin več informacij rain snow radar


Obiščite še:

Template documentation
and downloads

And another site



Weather Underground, zgodovina - Tekstovno

Dnevni povzetek za Januar 6, 2018 Enote:  Angleško    Metrično   Obe
« Predhodni Dan
Naslednji Dan »
Dnevni Tedenski Mesečni Letni Po meri
  Višja: Nižja: Povprečje:
Temperatura: TemperatureC °F 4.2 °F 8.5 °F
Točka rosišča: DewpointC °F 3.7 °F 7.2 °F
Vlažnost: Humidity % 73 % 92 %
Hitrost vetra: WindSpeedKMH mph 0.0 mph 1 mph
Sunki vetra: WindSpeedGustKMH mph - -
Veter:- - WSW
Zračni tlak: PressurehPa in 1008.0 in -
Padavine: 0.0 in    
Historical Graphs
 
 
Tabelarni podarki za Januar 6, 2018
Čas Temperatura Točka rosišča Zračni tlak Veter Hitrost vetra Sunki vetra Vlažnost Intenziteta padavin (urna)
TemperatureC °F DewpointC °F PressurehPa in Calm     Humidity % HourlyPrecipMM in
00:02 7.7 °F 7.1 °F 1008.0 in Calm     96 % 0.0 in
00:07 7.7 °F 7.1 °F 1008.0 in Calm     96 % 0.0 in
00:09 7.7 °F 7.1 °F 1008.0 in Calm     96 % 0.0 in
00:14 7.8 °F 7.2 °F 1008.0 in Calm     96 % 0.0 in
00:15 7.8 °F 7.2 °F 1008.0 in Calm     96 % 0.0 in
00:20 7.8 °F 7.2 °F 1008.0 in Calm     96 % 0.0 in
00:25 7.8 °F 7.2 °F 1008.0 in Calm     96 % 0.0 in
00:26 7.8 °F 7.2 °F 1008.0 in Calm     96 % 0.0 in
00:31 7.9 °F 7.3 °F 1008.0 in Calm     96 % 0.0 in
00:34 7.9 °F 7.3 °F 1008.0 in Calm     96 % 0.0 in
00:39 7.9 °F 7.3 °F 1008.0 in Calm     96 % 0.0 in
00:43 7.9 °F 7.3 °F 1008.0 in Calm     96 % 0.0 in
00:48 7.9 °F 7.3 °F 1008.0 in Calm     96 % 0.0 in
00:53 7.9 °F 7.3 °F 1008.0 in Calm     96 % 0.0 in
00:56 7.9 °F 7.3 °F 1008.0 in Calm     96 % 0.0 in
01:01 7.9 °F 7.3 °F 1008.0 in Calm     96 % 0.0 in
01:02 7.9 °F 7.3 °F 1008.0 in Calm     96 % 0.0 in
01:07 7.9 °F 7.3 °F 1008.0 in Calm     96 % 0.0 in
01:10 7.9 °F 7.3 °F 1008.0 in Calm     96 % 0.0 in
01:15 7.9 °F 7.3 °F 1008.0 in Calm     96 % 0.0 in
01:19 7.9 °F 7.3 °F 1008.0 in Calm     96 % 0.0 in
01:24 7.9 °F 7.3 °F 1008.0 in Calm     96 % 0.0 in
01:28 7.9 °F 7.3 °F 1008.0 in Calm     96 % 0.0 in
01:33 7.9 °F 7.3 °F 1008.0 in Calm     96 % 0.0 in
01:34 7.9 °F 7.3 °F 1008.0 in Calm     96 % 0.0 in
01:39 7.9 °F 7.3 °F 1008.0 in Calm     96 % 0.0 in
01:44 7.8 °F 7.2 °F 1008.0 in Calm     96 % 0.0 in
01:49 7.8 °F 7.2 °F 1008.0 in Calm     96 % 0.0 in
01:50 7.8 °F 7.2 °F 1008.0 in Calm     96 % 0.0 in
01:52 7.8 °F 7.2 °F 1008.0 in Calm     96 % 0.0 in
01:57 7.8 °F 7.2 °F 1008.0 in Calm     96 % 0.0 in
02:00 7.7 °F 7.1 °F 1008.0 in Calm     96 % 0.0 in
02:05 7.8 °F 7.2 °F 1008.0 in Calm     96 % 0.0 in
02:08 7.7 °F 7.1 °F 1008.0 in Calm     96 % 0.0 in
02:13 7.7 °F 7.1 °F 1008.0 in Calm     96 % 0.0 in
02:18 7.7 °F 7.1 °F 1008.0 in Calm     96 % 0.0 in
02:24 7.7 °F 7.1 °F 1008.0 in Calm     96 % 0.0 in
02:25 7.7 °F 7.1 °F 1008.0 in Calm     96 % 0.0 in
02:26 7.7 °F 7.1 °F 1008.0 in Calm     96 % 0.0 in
02:30 7.7 °F 7.1 °F 1008.0 in Calm   2.1 mph 96 % 0.0 in
02:35 7.7 °F 7.1 °F 1008.0 in Calm   2.1 mph 96 % 0.0 in
02:36 7.7 °F 7.1 °F 1008.0 in Calm   2.1 mph 96 % 0.0 in
02:41 7.7 °F 7.1 °F 1008.0 in Calm     96 % 0.0 in
02:52 7.7 °F 7.1 °F 1008.0 in Calm     96 % 0.0 in
02:53 7.7 °F 7.1 °F 1008.0 in Calm     96 % 0.0 in
02:58 7.7 °F 7.1 °F 1008.0 in West 1.1 mph 4.0 mph 96 % 0.0 in
02:59 7.7 °F 7.1 °F 1008.0 in West 1.3 mph 4.0 mph 96 % 0.0 in
03:04 7.5 °F 6.9 °F 1008.0 in West 1.3 mph 4.0 mph 96 % 0.0 in
03:05 7.5 °F 6.9 °F 1008.0 in West 1.1 mph 4.0 mph 96 % 0.0 in
03:10 7.4 °F 6.8 °F 1008.0 in Calm   3.5 mph 96 % 0.0 in
03:15 7.1 °F 6.5 °F 1008.0 in WSW 0.2 mph 3.5 mph 96 % 0.0 in
03:17 7.1 °F 6.5 °F 1008.0 in WSW 0.2 mph 3.5 mph 96 % 0.0 in
03:18 7.0 °F 6.4 °F 1008.0 in WSW 0.2 mph 3.5 mph 96 % 0.0 in
03:23 6.9 °F 6.3 °F 1008.0 in Calm     96 % 0.0 in
03:28 6.7 °F 6.1 °F 1008.0 in WSW 0.5 mph 5.5 mph 96 % 0.0 in
03:33 6.4 °F 5.8 °F 1008.0 in WSW 0.5 mph 5.5 mph 96 % 0.0 in
03:38 6.3 °F 5.7 °F 1008.0 in Calm     96 % 0.0 in
03:42 6.2 °F 5.6 °F 1008.0 in Calm     96 % 0.0 in
03:47 6.2 °F 5.6 °F 1008.0 in Calm     96 % 0.0 in
03:49 6.1 °F 5.5 °F 1008.0 in Calm     96 % 0.0 in
03:54 6.1 °F 5.5 °F 1008.0 in Calm     96 % 0.0 in
03:59 6.1 °F 5.5 °F 1008.0 in Calm     96 % 0.0 in
04:04 6.1 °F 5.5 °F 1008.0 in Calm     96 % 0.0 in
04:07 6.1 °F 5.5 °F 1008.0 in Calm     96 % 0.0 in
04:12 6.0 °F 5.4 °F 1008.0 in Calm     96 % 0.0 in
04:18 6.0 °F 5.4 °F 1008.0 in Calm     96 % 0.0 in
04:21 6.0 °F 5.4 °F 1008.0 in Calm     96 % 0.0 in
04:24 5.8 °F 5.2 °F 1008.0 in Calm     96 % 0.0 in
04:29 5.7 °F 5.1 °F 1008.0 in Calm     96 % 0.0 in
04:35 5.5 °F 4.9 °F 1008.0 in Calm     96 % 0.0 in
04:37 5.4 °F 4.8 °F 1008.0 in Calm     96 % 0.0 in
04:42 5.3 °F 4.7 °F 1008.0 in Calm     96 % 0.0 in
04:47 5.1 °F 4.5 °F 1008.0 in Calm     96 % 0.0 in
04:50 5.0 °F 4.4 °F 1008.0 in Calm     96 % 0.0 in
04:55 4.8 °F 4.2 °F 1008.0 in Calm     96 % 0.0 in
04:59 4.8 °F 4.2 °F 1008.0 in Calm     96 % 0.0 in
05:04 4.7 °F 4.1 °F 1008.0 in Calm     96 % 0.0 in
05:09 4.6 °F 4.0 °F 1008.0 in Calm     96 % 0.0 in
05:14 4.5 °F 3.9 °F 1008.0 in Calm     96 % 0.0 in
05:18 4.4 °F 3.8 °F 1008.0 in Calm     96 % 0.0 in
05:23 4.3 °F 3.7 °F 1008.0 in Calm     96 % 0.0 in
05:29 4.4 °F 3.8 °F 1009.0 in WNW 1.0 mph 5.0 mph 96 % 0.0 in
05:34 4.4 °F 3.8 °F 1009.0 in WNW 1.1 mph 5.0 mph 96 % 0.0 in
05:39 4.3 °F 3.7 °F 1009.0 in Calm     96 % 0.0 in
05:44 4.3 °F 3.7 °F 1009.0 in Calm     96 % 0.0 in
05:49 4.4 °F 3.8 °F 1009.0 in Calm     96 % 0.0 in
05:54 4.4 °F 3.8 °F 1009.0 in Calm     96 % 0.0 in
05:57 4.4 °F 3.8 °F 1009.0 in WNW 0.2 mph 4.0 mph 96 % 0.0 in
06:08 4.4 °F 3.9 °F 1008.0 in NNW 0.6 mph 4.3 mph 97 % 0.0 in
06:13 4.5 °F 4.1 °F 1009.0 in NNW 0.6 mph 4.3 mph 97 % 0.0 in
06:18 4.6 °F 4.2 °F 1009.0 in Calm     97 % 0.0 in
06:23 4.6 °F 4.2 °F 1009.0 in Calm   4.3 mph 97 % 0.0 in
06:28 4.5 °F 4.1 °F 1009.0 in West 0.5 mph 4.3 mph 97 % 0.0 in
06:33 4.5 °F 4.1 °F 1009.0 in WNW 0.8 mph 4.7 mph 97 % 0.0 in
06:35 4.5 °F 4.1 °F 1009.0 in NW 0.6 mph 4.7 mph 97 % 0.0 in
06:40 4.6 °F 4.2 °F 1009.0 in NW 0.6 mph 4.7 mph 97 % 0.0 in
06:45 4.6 °F 4.2 °F 1009.0 in Calm     97 % 0.0 in
06:50 4.5 °F 4.1 °F 1009.0 in Calm     97 % 0.0 in
06:51 4.5 °F 4.1 °F 1009.0 in Calm     97 % 0.0 in
06:52 4.5 °F 4.1 °F 1009.0 in Calm     97 % 0.0 in
06:57 4.5 °F 4.1 °F 1009.0 in West 0.3 mph 4.0 mph 97 % 0.0 in
06:59 4.4 °F 3.9 °F 1009.0 in West 0.3 mph 4.0 mph 97 % 0.0 in
07:04 4.4 °F 3.9 °F 1009.0 in WNW 0.2 mph 3.2 mph 97 % 0.0 in
07:09 4.4 °F 3.9 °F 1009.0 in WNW 0.2 mph 3.2 mph 97 % 0.0 in
07:10 4.4 °F 3.9 °F 1009.0 in WNW 0.2 mph 1.8 mph 97 % 0.0 in
07:15 4.3 °F 3.9 °F 1009.0 in Calm     97 % 0.0 in
07:20 4.3 °F 3.9 °F 1009.0 in Calm     97 % 0.0 in
07:25 4.3 °F 3.9 °F 1009.0 in Calm     97 % 0.0 in
07:27 4.3 °F 3.9 °F 1009.0 in Calm     97 % 0.0 in
07:32 4.3 °F 3.9 °F 1008.0 in Calm   1.4 mph 97 % 0.0 in
07:37 4.4 °F 3.9 °F 1008.0 in Calm   1.4 mph 97 % 0.0 in
07:42 4.3 °F 3.9 °F 1008.0 in Calm     97 % 0.0 in
07:47 4.3 °F 3.9 °F 1008.0 in Calm     97 % 0.0 in
07:52 4.2 °F 3.8 °F 1008.0 in Calm     97 % 0.0 in
07:57 4.2 °F 3.8 °F 1008.0 in Calm   1.8 mph 97 % 0.0 in
08:02 4.3 °F 3.9 °F 1009.0 in Calm   1.8 mph 97 % 0.0 in
08:07 4.2 °F 3.8 °F 1009.0 in Calm     97 % 0.0 in
08:11 4.3 °F 3.9 °F 1009.0 in WSW 0.2 mph 4.0 mph 97 % 0.0 in
08:12 4.3 °F 3.9 °F 1009.0 in WSW 0.3 mph 4.0 mph 97 % 0.0 in
08:17 4.2 °F 3.8 °F 1009.0 in WSW 0.3 mph 4.0 mph 97 % 0.0 in
08:23 4.3 °F 3.9 °F 1009.0 in Calm     97 % 0.0 in
08:26 4.3 °F 3.9 °F 1009.0 in Calm     97 % 0.0 in
08:31 4.5 °F 4.1 °F 1009.0 in Calm   1.8 mph 97 % 0.0 in
08:33 4.5 °F 4.1 °F 1009.0 in Calm   1.8 mph 97 % 0.0 in
08:38 4.6 °F 4.2 °F 1009.0 in Calm   1.8 mph 97 % 0.0 in
08:42 4.7 °F 4.3 °F 1009.0 in Calm     97 % 0.0 in
08:47 4.8 °F 4.4 °F 1009.0 in Calm     97 % 0.0 in
08:52 5.0 °F 4.6 °F 1009.0 in Calm     97 % 0.0 in
08:56 5.1 °F 4.7 °F 1009.0 in Calm     97 % 0.0 in
08:57 5.1 °F 4.7 °F 1010.0 in Calm     97 % 0.0 in
09:02 5.4 °F 4.9 °F 1010.0 in Calm     97 % 0.0 in
09:07 5.6 °F 5.2 °F 1010.0 in Calm     97 % 0.0 in
09:12 5.8 °F 5.3 °F 1010.0 in Calm     97 % 0.0 in
09:17 6.0 °F 5.6 °F 1010.0 in Calm     97 % 0.0 in
09:21 6.1 °F 5.7 °F 1010.0 in Calm     97 % 0.0 in
09:26 6.3 °F 5.8 °F 1010.0 in Calm     97 % 0.0 in
09:31 6.5 °F 6.1 °F 1011.1 in Calm     97 % 0.0 in
09:36 6.7 °F 6.3 °F 1011.1 in SE 0.8 mph 4.7 mph 97 % 0.0 in
09:41 6.8 °F 6.3 °F 1011.1 in SE 0.8 mph 4.7 mph 97 % 0.0 in
09:42 6.8 °F 6.3 °F 1011.1 in SE 0.8 mph 4.7 mph 97 % 0.0 in
09:47 7.0 °F 6.6 °F 1011.1 in Calm     97 % 0.0 in
09:52 7.1 °F 6.7 °F 1011.1 in Calm     97 % 0.0 in
09:57 7.2 °F 6.8 °F 1011.1 in Calm     97 % 0.0 in
10:02 7.3 °F 6.8 °F 1011.1 in SE 0.3 mph 3.2 mph 97 % 0.0 in
10:07 7.4 °F 6.9 °F 1011.1 in SE 0.3 mph 3.2 mph 97 % 0.0 in
10:12 7.5 °F 7.1 °F 1011.1 in SSE 0.2 mph 1.4 mph 97 % 0.0 in
10:17 7.5 °F 7.2 °F 1011.1 in Calm     98 % 0.0 in
10:22 7.7 °F 7.4 °F 1011.1 in Calm     98 % 0.0 in
10:28 7.8 °F 7.5 °F 1011.1 in Calm     98 % 0.0 in
10:33 7.9 °F 7.6 °F 1011.1 in Calm     98 % 0.0 in
10:38 8.0 °F 7.6 °F 1011.1 in Calm     97 % 0.0 in
10:40 8.1 °F 7.7 °F 1011.1 in Calm     97 % 0.0 in
10:45 8.1 °F 7.7 °F 1010.0 in Calm     97 % 0.0 in
10:50 8.2 °F 7.8 °F 1010.0 in Calm     97 % 0.0 in
10:56 8.3 °F 8.0 °F 1010.0 in Calm     98 % 0.0 in
11:01 8.5 °F 8.2 °F 1011.1 in Calm     98 % 0.0 in
11:02 8.5 °F 8.2 °F 1011.1 in Calm     98 % 0.0 in
11:07 8.7 °F 8.4 °F 1011.1 in Calm     98 % 0.0 in
11:12 8.9 °F 8.6 °F 1011.1 in Calm     98 % 0.0 in
11:17 9.0 °F 8.7 °F 1011.1 in Calm     98 % 0.0 in
11:22 9.3 °F 9.0 °F 1011.1 in Calm     98 % 0.0 in
11:26 9.4 °F 9.1 °F 1011.1 in Calm     98 % 0.0 in
11:31 9.5 °F 9.2 °F 1011.1 in Calm     98 % 0.0 in
11:36 9.7 °F 9.4 °F 1011.1 in Calm     98 % 0.0 in
11:42 9.8 °F 9.5 °F 1011.1 in Calm     98 % 0.0 in
11:47 9.9 °F 9.6 °F 1011.1 in Calm     98 % 0.0 in
11:52 10.0 °F 9.7 °F 1011.1 in Calm     98 % 0.0 in
11:57 10.1 °F 9.8 °F 1011.1 in Calm     98 % 0.0 in
12:02 10.2 °F 9.9 °F 1011.1 in Calm     98 % 0.0 in
12:04 10.3 °F 10.0 °F 1011.1 in Calm     98 % 0.0 in
12:10 10.4 °F 10.1 °F 1011.1 in Calm     98 % 0.0 in
12:15 10.5 °F 10.2 °F 1011.1 in SE 1.3 mph 4.7 mph 98 % 0.0 in
12:26 10.8 °F 10.5 °F 1011.1 in Calm     98 % 0.0 in
12:31 10.9 °F 10.6 °F 1011.1 in Calm     98 % 0.0 in
12:36 11.1 °F 10.8 °F 1011.1 in Calm     98 % 0.0 in
12:42 11.2 °F 10.9 °F 1011.1 in Calm     98 % 0.0 in
12:47 11.4 °F 11.1 °F 1010.0 in West 0.2 mph 5.0 mph 98 % 0.0 in
12:51 11.7 °F 11.4 °F 1010.0 in WSW 0.6 mph 5.0 mph 98 % 0.0 in
12:52 11.7 °F 11.4 °F 1010.0 in SW 0.8 mph 5.0 mph 98 % 0.0 in
12:57 11.9 °F 11.6 °F 1011.1 in SSE 2.3 mph 5.5 mph 98 % 0.0 in
13:04 12.1 °F 11.6 °F 1011.1 in South 2.3 mph 6.4 mph 97 % 0.0 in
13:15 12.6 °F 12.3 °F 1010.0 in SSW 3.2 mph 7.6 mph 98 % 0.0 in
13:17 12.6 °F 12.3 °F 1010.0 in SSW 2.4 mph 5.8 mph 98 % 0.0 in
13:22 12.7 °F 12.2 °F 1010.0 in South 2.4 mph 6.4 mph 97 % 0.0 in
13:23 12.7 °F 12.2 °F 1010.0 in South 2.4 mph 6.4 mph 97 % 0.0 in
13:28 12.8 °F 12.3 °F 1009.0 in South 1.9 mph 6.4 mph 97 % 0.0 in
13:33 12.8 °F 12.3 °F 1009.0 in SSE 1.3 mph 5.8 mph 97 % 0.0 in
13:38 12.9 °F 12.4 °F 1009.0 in SSE 1.1 mph 5.8 mph 97 % 0.0 in
13:44 13.0 °F 12.6 °F 1009.0 in South 1.0 mph 6.1 mph 97 % 0.0 in
13:46 13.1 °F 12.6 °F 1009.0 in SSW 2.1 mph 6.1 mph 97 % 0.0 in
13:48 13.1 °F 12.6 °F 1009.0 in SSW 2.6 mph 6.1 mph 97 % 0.0 in
13:53 13.2 °F 12.7 °F 1009.0 in SW 4.3 mph 9.7 mph 97 % 0.0 in
13:55 13.3 °F 12.7 °F 1009.0 in SW 4.7 mph 9.7 mph 96 % 0.0 in
14:00 13.3 °F 12.7 °F 1010.0 in South 5.0 mph 11.6 mph 96 % 0.0 in
14:05 13.3 °F 12.7 °F 1010.0 in SSW 6.3 mph 13.0 mph 96 % 0.0 in
14:10 13.3 °F 12.7 °F 1010.0 in SW 5.5 mph 13.0 mph 96 % 0.0 in
14:15 13.4 °F 12.6 °F 1010.0 in SSW 4.7 mph 9.3 mph 95 % 0.0 in
14:21 13.4 °F 12.6 °F 1010.0 in SSW 5.5 mph 11.1 mph 95 % 0.0 in
14:26 13.5 °F 12.6 °F 1010.0 in SSW 5.1 mph 11.1 mph 94 % 0.0 in
14:32 13.5 °F 12.4 °F 1010.0 in SSW 4.3 mph 6.4 mph 93 % 0.0 in
14:37 13.5 °F 12.4 °F 1010.0 in SW 4.3 mph 10.5 mph 93 % 0.0 in
14:38 13.5 °F 12.4 °F 1010.0 in SW 4.5 mph 10.5 mph 93 % 0.0 in
14:43 13.5 °F 12.2 °F 1011.1 in SW 4.5 mph 10.5 mph 92 % 0.0 in
14:53 13.6 °F 12.0 °F 1011.1 in SW 4.8 mph 10.5 mph 90 % 0.0 in
14:55 13.6 °F 11.8 °F 1011.1 in SSW 4.8 mph 10.5 mph 89 % 0.0 in
15:01 13.6 °F 11.7 °F 1011.1 in SW 5.8 mph 10.5 mph 88 % 0.0 in
15:04 13.6 °F 11.7 °F 1011.1 in SSW 5.8 mph 9.7 mph 88 % 0.0 in
15:09 13.6 °F 11.3 °F 1011.1 in SSW 4.3 mph 9.0 mph 86 % 0.0 in
15:13 13.6 °F 11.3 °F 1011.1 in SSW 4.3 mph 9.0 mph 86 % 0.0 in
15:18 13.6 °F 11.1 °F 1011.1 in SSW 5.1 mph 13.7 mph 85 % 0.0 in
15:24 13.6 °F 10.9 °F 1011.1 in South 4.8 mph 11.6 mph 84 % 0.0 in
15:26 13.6 °F 10.8 °F 1011.1 in South 3.5 mph 8.7 mph 83 % 0.0 in
15:31 13.6 °F 10.8 °F 1011.1 in South 4.8 mph 10.1 mph 83 % 0.0 in
15:36 13.7 °F 10.7 °F 1011.1 in SSW 5.3 mph 10.8 mph 82 % 0.0 in
15:41 13.7 °F 10.5 °F 1011.1 in SSW 6.9 mph 16.9 mph 81 % 0.0 in
15:44 13.7 °F 10.3 °F 1011.1 in SSW 8.2 mph 16.9 mph 80 % 0.0 in
15:49 13.8 °F 10.4 °F 1011.1 in SSW 7.9 mph 16.9 mph 80 % 0.0 in
15:52 13.8 °F 10.2 °F 1011.1 in SSW 7.2 mph 12.2 mph 79 % 0.0 in
15:57 13.8 °F 10.1 °F 1011.1 in SSW 5.8 mph 12.2 mph 78 % 0.0 in
15:59 13.8 °F 10.1 °F 1011.1 in SSW 5.8 mph 10.8 mph 78 % 0.0 in
16:04 13.8 °F 9.8 °F 1011.1 in SSW 5.5 mph 10.8 mph 77 % 0.0 in
16:09 13.7 °F 9.6 °F 1011.1 in SSW 5.3 mph 9.7 mph 76 % 0.0 in
16:14 13.6 °F 9.2 °F 1012.1 in SSW 5.1 mph 10.5 mph 75 % 0.0 in
16:20 13.4 °F 8.8 °F 1012.1 in South 4.8 mph 10.5 mph 74 % 0.0 in
16:24 13.3 °F 8.8 °F 1012.1 in South 5.6 mph 13.0 mph 74 % 0.0 in
16:29 13.3 °F 8.8 °F 1012.1 in South 6.4 mph 13.0 mph 74 % 0.0 in
16:33 13.1 °F 8.6 °F 1012.1 in SSW 5.6 mph 10.8 mph 74 % 0.0 in
16:39 12.8 °F 8.3 °F 1012.1 in SSW 4.5 mph 10.1 mph 74 % 0.0 in
16:44 12.5 °F 7.8 °F 1010.0 in South 3.7 mph 6.9 mph 73 % 0.0 in
16:49 12.3 °F 7.6 °F 1010.0 in South 3.2 mph 10.5 mph 73 % 0.0 in
16:52 12.1 °F 7.4 °F 1010.0 in South 3.1 mph 10.5 mph 73 % 0.0 in
16:57 11.6 °F 6.9 °F 1010.0 in WSW 2.9 mph 10.5 mph 73 % 0.0 in
16:58 11.4 °F 6.7 °F 1011.1 in West 3.1 mph 10.5 mph 73 % 0.0 in
17:03 11.0 °F 6.3 °F 1011.1 in WNW 3.7 mph 6.1 mph 73 % 0.0 in
17:08 10.7 °F 6.3 °F 1011.1 in WNW 3.1 mph 6.1 mph 74 % 0.0 in
17:13 10.3 °F 5.9 °F 1010.0 in WNW 0.6 mph 4.3 mph 74 % 0.0 in
17:15 10.2 °F 5.8 °F 1010.0 in NW 0.5 mph 4.3 mph 74 % 0.0 in
17:20 9.8 °F 5.6 °F 1010.0 in Calm     75 % 0.0 in
17:26 9.5 °F 5.3 °F 1010.0 in Calm     75 % 0.0 in
17:31 9.3 °F 5.1 °F 1011.1 in Calm     75 % 0.0 in
17:36 9.0 °F 5.0 °F 1011.1 in West 0.2 mph 3.5 mph 76 % 0.0 in
17:42 8.9 °F 4.9 °F 1011.1 in West 0.3 mph 1.8 mph 76 % 0.0 in
17:43 8.8 °F 4.8 °F 1011.1 in West 0.2 mph 1.8 mph 76 % 0.0 in
17:44 8.8 °F 4.8 °F 1011.1 in West 0.2 mph 1.8 mph 76 % 0.0 in
17:45 8.8 °F 4.8 °F 1010.0 in West 0.2 mph 1.8 mph 76 % 0.0 in
17:46 8.7 °F 4.9 °F 1010.0 in West 0.2 mph 1.8 mph 77 % 0.0 in
17:48 8.7 °F 4.9 °F 1010.0 in West 0.2 mph 1.8 mph 77 % 0.0 in
17:50 8.7 °F 4.9 °F 1010.0 in Calm     77 % 0.0 in
17:51 8.7 °F 4.9 °F 1010.0 in Calm     77 % 0.0 in
18:01 8.7 °F 4.9 °F 1010.0 in Calm     77 % 0.0 in
18:05 8.6 °F 5.2 °F 1011.1 in North 0.2 mph   79 % 0.0 in
18:10 8.7 °F 5.4 °F 1011.1 in Calm     80 % 0.0 in
18:14 8.6 °F 5.5 °F 1011.1 in Calm     81 % 0.0 in
18:19 8.6 °F 5.7 °F 1011.1 in Calm     82 % 0.0 in
18:24 8.6 °F 5.7 °F 1011.1 in Calm     82 % 0.0 in
18:29 8.6 °F 5.9 °F 1011.1 in NNW 0.2 mph 4.3 mph 83 % 0.0 in
18:34 8.6 °F 5.9 °F 1011.1 in NW 1.1 mph 4.3 mph 83 % 0.0 in
18:39 8.7 °F 6.2 °F 1011.1 in NNW 1.4 mph 4.3 mph 84 % 0.0 in
18:44 8.8 °F 6.2 °F 1011.1 in NNW 1.0 mph 4.3 mph 84 % 0.0 in
18:49 9.0 °F 6.4 °F 1011.1 in NW 0.5 mph 4.0 mph 84 % 0.0 in
18:52 9.0 °F 6.6 °F 1011.1 in NW 0.5 mph 4.0 mph 85 % 0.0 in
18:57 9.1 °F 6.7 °F 1012.1 in WSW 0.3 mph 4.0 mph 85 % 0.0 in
18:59 9.2 °F 6.8 °F 1012.1 in West 0.6 mph 4.0 mph 85 % 0.0 in
19:04 9.2 °F 6.8 °F 1012.1 in WNW 0.6 mph 4.0 mph 85 % 0.0 in
19:05 9.3 °F 7.1 °F 1012.1 in WNW 0.6 mph 4.0 mph 86 % 0.0 in
19:10 9.4 °F 7.2 °F 1012.1 in WNW 2.4 mph 11.6 mph 86 % 0.0 in
19:15 9.5 °F 7.3 °F 1012.1 in NW 3.4 mph 11.6 mph 86 % 0.0 in
19:20 9.7 °F 7.7 °F 1012.1 in WNW 2.4 mph 10.5 mph 87 % 0.0 in
19:25 10.1 °F 8.1 °F 1012.1 in WSW 3.5 mph 10.5 mph 87 % 0.0 in
19:30 10.4 °F 8.5 °F 1012.1 in West 4.2 mph 9.3 mph 88 % 0.0 in
19:34 10.4 °F 8.5 °F 1012.1 in West 3.7 mph 9.3 mph 88 % 0.0 in
19:40 10.6 °F 8.7 °F 1012.1 in West 2.4 mph 7.6 mph 88 % 0.0 in
19:42 10.7 °F 8.9 °F 1012.1 in West 2.1 mph 6.4 mph 89 % 0.0 in
19:48 10.9 °F 9.2 °F 1012.1 in West 2.6 mph 6.4 mph 89 % 0.0 in
19:53 11.0 °F 9.3 °F 1012.1 in West 1.6 mph 6.4 mph 89 % 0.0 in
19:54 11.0 °F 9.3 °F 1012.1 in West 1.9 mph 6.4 mph 89 % 0.0 in
19:59 10.9 °F 9.2 °F 1012.1 in WNW 2.1 mph 6.4 mph 89 % 0.0 in
20:02 10.9 °F 9.2 °F 1012.1 in West 2.7 mph 6.4 mph 89 % 0.0 in
20:03 10.9 °F 9.2 °F 1012.1 in West 2.7 mph 4.7 mph 89 % 0.0 in
20:09 10.9 °F 9.2 °F 1012.1 in WSW 1.3 mph 4.7 mph 89 % 0.0 in
20:14 10.9 °F 9.2 °F 1012.1 in WNW 0.5 mph 3.5 mph 89 % 0.0 in
20:15 10.8 °F 9.1 °F 1012.1 in WNW 0.5 mph 3.5 mph 89 % 0.0 in
20:20 10.7 °F 8.9 °F 1012.1 in West 0.3 mph 3.2 mph 89 % 0.0 in
20:23 10.5 °F 8.8 °F 1012.1 in Calm     89 % 0.0 in
20:29 10.4 °F 8.7 °F 1012.1 in Calm     89 % 0.0 in
20:32 10.3 °F 8.6 °F 1012.1 in Calm     89 % 0.0 in
20:37 10.1 °F 8.4 °F 1012.1 in Calm     89 % 0.0 in
20:42 10.0 °F 8.3 °F 1012.1 in Calm     89 % 0.0 in
20:47 10.0 °F 8.3 °F 1012.1 in Calm     89 % 0.0 in
20:52 9.9 °F 8.2 °F 1012.1 in Calm     89 % 0.0 in
20:57 9.9 °F 8.2 °F 1012.1 in Calm     89 % 0.0 in
21:02 9.7 °F 8.0 °F 1013.1 in NW 0.3 mph 3.2 mph 89 % 0.0 in
21:05 9.7 °F 8.0 °F 1013.1 in NW 0.3 mph 3.2 mph 89 % 0.0 in
21:10 9.7 °F 8.0 °F 1013.1 in North 0.2 mph   89 % 0.0 in
21:13 9.6 °F 7.9 °F 1013.1 in Calm     89 % 0.0 in
21:18 9.5 °F 7.9 °F 1013.1 in Calm   3.2 mph 90 % 0.0 in
21:20 9.4 °F 7.8 °F 1013.1 in NW 0.3 mph 3.5 mph 90 % 0.0 in
21:25 9.3 °F 7.7 °F 1013.1 in NW 0.5 mph 3.5 mph 90 % 0.0 in
21:30 9.3 °F 7.7 °F 1013.1 in NW 0.2 mph 1.8 mph 90 % 0.0 in
21:35 9.3 °F 7.7 °F 1013.1 in Calm     90 % 0.0 in
21:40 9.1 °F 7.6 °F 1013.1 in NW 0.3 mph 4.3 mph 90 % 0.0 in
21:43 9.0 °F 7.4 °F 1014.1 in NW 1.3 mph 4.3 mph 90 % 0.0 in
21:48 8.9 °F 7.3 °F 1014.1 in NW 1.4 mph 4.3 mph 90 % 0.0 in
21:53 8.8 °F 7.2 °F 1014.1 in North 0.2 mph   90 % 0.0 in
21:58 8.7 °F 7.2 °F 1013.1 in Calm     90 % 0.0 in
22:04 8.6 °F 7.2 °F 1013.1 in Calm   2.1 mph 91 % 0.0 in
22:06 8.6 °F 7.2 °F 1013.1 in Calm   2.1 mph 91 % 0.0 in
22:11 8.5 °F 7.1 °F 1013.1 in West 0.3 mph 3.5 mph 91 % 0.0 in
22:13 8.5 °F 7.1 °F 1013.1 in NW 0.3 mph 5.0 mph 91 % 0.0 in
22:18 8.5 °F 7.1 °F 1013.1 in NNW 1.6 mph 5.0 mph 91 % 0.0 in
22:23 8.6 °F 7.2 °F 1013.1 in NW 1.9 mph 4.7 mph 91 % 0.0 in
22:28 8.6 °F 7.2 °F 1012.1 in NW 0.8 mph 4.7 mph 91 % 0.0 in
22:33 8.6 °F 7.2 °F 1012.1 in Calm     91 % 0.0 in
22:38 8.6 °F 7.4 °F 1012.1 in Calm   1.8 mph 92 % 0.0 in
22:43 8.6 °F 7.4 °F 1012.1 in Calm   5.0 mph 92 % 0.0 in
22:48 8.6 °F 7.4 °F 1012.1 in WNW 0.5 mph 5.0 mph 92 % 0.0 in
22:53 8.5 °F 7.3 °F 1012.1 in West 0.5 mph 4.0 mph 92 % 0.0 in
22:58 8.5 °F 7.3 °F 1012.1 in Calm     92 % 0.0 in
23:03 8.3 °F 7.1 °F 1012.1 in Calm   2.1 mph 92 % 0.0 in
23:05 8.3 °F 7.1 °F 1012.1 in Calm   2.1 mph 92 % 0.0 in
23:10 8.1 °F 6.9 °F 1012.1 in Calm     92 % 0.0 in
23:15 8.0 °F 6.8 °F 1013.1 in Calm   2.6 mph 92 % 0.0 in
23:20 7.8 °F 6.6 °F 1013.1 in West 0.2 mph 2.6 mph 92 % 0.0 in
23:25 7.5 °F 6.3 °F 1013.1 in West 0.2 mph 1.4 mph 92 % 0.0 in
23:26 7.5 °F 6.3 °F 1013.1 in Calm     92 % 0.0 in
23:31 7.3 °F 6.1 °F 1013.1 in Calm     92 % 0.0 in
23:39 7.0 °F 5.8 °F 1013.1 in Calm     92 % 0.0 in
23:40 7.0 °F 5.8 °F 1013.1 in Calm     92 % 0.0 in
23:45 6.9 °F 5.8 °F 1013.1 in Calm     93 % 0.0 in
23:50 6.7 °F 5.7 °F 1013.1 in Calm     93 % 0.0 in
23:55 6.7 °F 5.7 °F 1013.1 in Calm     93 % 0.0 in
Vremenska postaja Senovo
Podatki zbrani iz Weather Underground - 3 mb

Script developed by  Jim McMurry - jmcmurry@mwt.net Adapted for the template by  Wim van der Kuil - Leuven-Template.eu

Vremenski podatki so objavljeni na:

European Weather Network

WeatherCloud

Weather Underground

AWEKAS

HAMweather, WeatherForYou, PWS Weather

MapView

Geostik

Slovenia weather network

Oprema, ki se uporablja:

Vremenski program
Cumulus

Vremenski server
Asus

Cumulus

Asus